sensor_id;sensor_type;location;lat;lon;timestamp;P1;durP1;ratioP1;P2;durP2;ratioP2
11620;SDS011;5866;49.094;11.900;2022-07-03T00:02:27;19.90;;;18.70;;
11620;SDS011;5866;49.094;11.900;2022-07-03T00:04:54;21.45;;;20.25;;
11620;SDS011;5866;49.094;11.900;2022-07-03T00:07:22;19.90;;;18.80;;
11620;SDS011;5866;49.094;11.900;2022-07-03T00:09:49;20.23;;;19.13;;
11620;SDS011;5866;49.094;11.900;2022-07-03T00:12:17;22.02;;;20.73;;
11620;SDS011;5866;49.094;11.900;2022-07-03T00:14:45;20.42;;;19.25;;
11620;SDS011;5866;49.094;11.900;2022-07-03T00:17:12;21.85;;;20.65;;
11620;SDS011;5866;49.094;11.900;2022-07-03T00:19:41;23.52;;;22.20;;
11620;SDS011;5866;49.094;11.900;2022-07-03T00:22:10;20.80;;;19.67;;
11620;SDS011;5866;49.094;11.900;2022-07-03T00:24:40;19.80;;;18.70;;
11620;SDS011;5866;49.094;11.900;2022-07-03T00:27:11;21.35;;;20.17;;
11620;SDS011;5866;49.094;11.900;2022-07-03T00:29:42;21.73;;;20.52;;
11620;SDS011;5866;49.094;11.900;2022-07-03T00:32:12;22.20;;;21.00;;
11620;SDS011;5866;49.094;11.900;2022-07-03T00:34:42;23.75;;;22.48;;
11620;SDS011;5866;49.094;11.900;2022-07-03T00:37:10;23.98;;;22.65;;
11620;SDS011;5866;49.094;11.900;2022-07-03T00:39:39;19.98;;;18.88;;
11620;SDS011;5866;49.094;11.900;2022-07-03T00:42:08;21.60;;;20.40;;
11620;SDS011;5866;49.094;11.900;2022-07-03T00:44:42;24.17;;;22.77;;
11620;SDS011;5866;49.094;11.900;2022-07-03T00:47:12;24.73;;;23.42;;
11620;SDS011;5866;49.094;11.900;2022-07-03T00:49:43;24.30;;;22.92;;
11620;SDS011;5866;49.094;11.900;2022-07-03T00:52:13;23.38;;;22.00;;
11620;SDS011;5866;49.094;11.900;2022-07-03T00:54:43;25.95;;;24.40;;
11620;SDS011;5866;49.094;11.900;2022-07-03T00:57:13;21.52;;;20.30;;
11620;SDS011;5866;49.094;11.900;2022-07-03T00:59:43;22.77;;;21.48;;
11620;SDS011;5866;49.094;11.900;2022-07-03T01:02:14;25.58;;;24.17;;
11620;SDS011;5866;49.094;11.900;2022-07-03T01:04:50;26.42;;;25.00;;
11620;SDS011;5866;49.094;11.900;2022-07-03T01:07:22;25.95;;;24.55;;
11620;SDS011;5866;49.094;11.900;2022-07-03T01:10:02;24.92;;;23.52;;
11620;SDS011;5866;49.094;11.900;2022-07-03T01:12:33;25.65;;;24.25;;
11620;SDS011;5866;49.094;11.900;2022-07-03T01:15:15;23.05;;;21.75;;
11620;SDS011;5866;49.094;11.900;2022-07-03T01:17:53;22.83;;;21.42;;
11620;SDS011;5866;49.094;11.900;2022-07-03T01:20:31;22.13;;;20.67;;
11620;SDS011;5866;49.094;11.900;2022-07-03T01:23:06;24.48;;;23.08;;
11620;SDS011;5866;49.094;11.900;2022-07-03T01:25:48;21.63;;;20.40;;
11620;SDS011;5866;49.094;11.900;2022-07-03T01:28:18;21.00;;;19.83;;
11620;SDS011;5866;49.094;11.900;2022-07-03T01:30:50;23.13;;;21.83;;
11620;SDS011;5866;49.094;11.900;2022-07-03T01:33:20;22.50;;;21.30;;
11620;SDS011;5866;49.094;11.900;2022-07-03T01:35:54;21.48;;;20.27;;
11620;SDS011;5866;49.094;11.900;2022-07-03T01:38:26;21.70;;;20.45;;
11620;SDS011;5866;49.094;11.900;2022-07-03T01:40:56;21.40;;;20.20;;
11620;SDS011;5866;49.094;11.900;2022-07-03T01:43:25;22.00;;;20.77;;
11620;SDS011;5866;49.094;11.900;2022-07-03T01:45:56;19.70;;;18.58;;
11620;SDS011;5866;49.094;11.900;2022-07-03T01:48:25;19.15;;;18.00;;
11620;SDS011;5866;49.094;11.900;2022-07-03T01:50:54;21.25;;;19.85;;
11620;SDS011;5866;49.094;11.900;2022-07-03T01:53:23;21.05;;;19.77;;
11620;SDS011;5866;49.094;11.900;2022-07-03T01:55:55;19.10;;;17.80;;
11620;SDS011;5866;49.094;11.900;2022-07-03T01:58:26;18.88;;;17.77;;
11620;SDS011;5866;49.094;11.900;2022-07-03T02:00:57;21.92;;;20.63;;
11620;SDS011;5866;49.094;11.900;2022-07-03T02:03:30;21.98;;;20.70;;
11620;SDS011;5866;49.094;11.900;2022-07-03T02:06:02;20.98;;;19.73;;
11620;SDS011;5866;49.094;11.900;2022-07-03T02:08:43;15.43;;;14.52;;
11620;SDS011;5866;49.094;11.900;2022-07-03T02:11:34;20.63;;;19.42;;
11620;SDS011;5866;49.094;11.900;2022-07-03T02:14:09;21.83;;;20.63;;
11620;SDS011;5866;49.094;11.900;2022-07-03T02:16:43;23.77;;;22.25;;
11620;SDS011;5866;49.094;11.900;2022-07-03T02:19:17;20.42;;;19.02;;
11620;SDS011;5866;49.094;11.900;2022-07-03T02:21:47;21.85;;;20.60;;
11620;SDS011;5866;49.094;11.900;2022-07-03T02:24:17;22.52;;;21.33;;
11620;SDS011;5866;49.094;11.900;2022-07-03T02:26:53;22.45;;;20.98;;
11620;SDS011;5866;49.094;11.900;2022-07-03T02:29:26;22.45;;;21.13;;
11620;SDS011;5866;49.094;11.900;2022-07-03T02:32:00;20.20;;;19.00;;
11620;SDS011;5866;49.094;11.900;2022-07-03T02:34:31;19.77;;;18.63;;
11620;SDS011;5866;49.094;11.900;2022-07-03T02:37:03;18.50;;;17.40;;
11620;SDS011;5866;49.094;11.900;2022-07-03T02:39:38;17.83;;;16.58;;
11620;SDS011;5866;49.094;11.900;2022-07-03T02:42:14;19.00;;;17.90;;
11620;SDS011;5866;49.094;11.900;2022-07-03T02:44:50;20.27;;;19.00;;
11620;SDS011;5866;49.094;11.900;2022-07-03T02:47:23;20.85;;;19.50;;
11620;SDS011;5866;49.094;11.900;2022-07-03T02:50:00;19.20;;;18.10;;
11620;SDS011;5866;49.094;11.900;2022-07-03T02:52:33;19.65;;;18.45;;
11620;SDS011;5866;49.094;11.900;2022-07-03T02:55:11;18.73;;;17.63;;
11620;SDS011;5866;49.094;11.900;2022-07-03T02:57:57;17.42;;;16.33;;
11620;SDS011;5866;49.094;11.900;2022-07-03T03:00:40;16.50;;;15.50;;
11620;SDS011;5866;49.094;11.900;2022-07-03T03:03:16;20.38;;;19.17;;
11620;SDS011;5866;49.094;11.900;2022-07-03T03:05:51;21.83;;;20.20;;
11620;SDS011;5866;49.094;11.900;2022-07-03T03:08:24;21.10;;;19.83;;
11620;SDS011;5866;49.094;11.900;2022-07-03T03:11:03;19.42;;;18.20;;
11620;SDS011;5866;49.094;11.900;2022-07-03T03:13:35;17.25;;;16.20;;
11620;SDS011;5866;49.094;11.900;2022-07-03T03:16:04;19.70;;;18.50;;
11620;SDS011;5866;49.094;11.900;2022-07-03T03:18:34;19.55;;;18.38;;
11620;SDS011;5866;49.094;11.900;2022-07-03T03:21:04;21.38;;;20.13;;
11620;SDS011;5866;49.094;11.900;2022-07-03T03:23:38;19.42;;;18.23;;
11620;SDS011;5866;49.094;11.900;2022-07-03T03:26:11;19.20;;;18.10;;
11620;SDS011;5866;49.094;11.900;2022-07-03T03:28:40;18.38;;;17.10;;
11620;SDS011;5866;49.094;11.900;2022-07-03T03:31:08;20.33;;;18.95;;
11620;SDS011;5866;49.094;11.900;2022-07-03T03:33:39;18.55;;;17.48;;
11620;SDS011;5866;49.094;11.900;2022-07-03T03:36:08;19.33;;;18.13;;
11620;SDS011;5866;49.094;11.900;2022-07-03T03:38:37;22.35;;;20.95;;
11620;SDS011;5866;49.094;11.900;2022-07-03T03:41:05;20.33;;;19.13;;
11620;SDS011;5866;49.094;11.900;2022-07-03T03:43:43;20.45;;;19.15;;
11620;SDS011;5866;49.094;11.900;2022-07-03T03:46:11;19.77;;;18.58;;
11620;SDS011;5866;49.094;11.900;2022-07-03T03:48:40;20.13;;;18.88;;
11620;SDS011;5866;49.094;11.900;2022-07-03T03:51:08;32.10;;;30.23;;
11620;SDS011;5866;49.094;11.900;2022-07-03T03:53:36;39.08;;;36.75;;
11620;SDS011;5866;49.094;11.900;2022-07-03T03:56:04;76.93;;;72.72;;
11620;SDS011;5866;49.094;11.900;2022-07-03T03:58:35;65.32;;;61.67;;
11620;SDS011;5866;49.094;11.900;2022-07-03T04:01:05;69.93;;;66.22;;
11620;SDS011;5866;49.094;11.900;2022-07-03T04:03:34;97.65;;;92.63;;
11620;SDS011;5866;49.094;11.900;2022-07-03T04:06:03;44.70;;;42.33;;
11620;SDS011;5866;49.094;11.900;2022-07-03T04:08:31;29.92;;;28.35;;
11620;SDS011;5866;49.094;11.900;2022-07-03T04:10:59;20.63;;;19.50;;
11620;SDS011;5866;49.094;11.900;2022-07-03T04:13:26;9.45;;;8.95;;
11620;SDS011;5866;49.094;11.900;2022-07-03T04:15:54;7.22;;;6.82;;
11620;SDS011;5866;49.094;11.900;2022-07-03T04:18:23;8.05;;;7.55;;
11620;SDS011;5866;49.094;11.900;2022-07-03T04:20:57;6.28;;;5.70;;
11620;SDS011;5866;49.094;11.900;2022-07-03T04:23:25;6.18;;;5.82;;
11620;SDS011;5866;49.094;11.900;2022-07-03T04:25:52;4.70;;;4.40;;
11620;SDS011;5866;49.094;11.900;2022-07-03T04:28:20;7.72;;;6.95;;
11620;SDS011;5866;49.094;11.900;2022-07-03T04:30:48;8.88;;;8.18;;
11620;SDS011;5866;49.094;11.900;2022-07-03T04:33:15;8.43;;;7.65;;
11620;SDS011;5866;49.094;11.900;2022-07-03T04:35:44;5.22;;;4.75;;
11620;SDS011;5866;49.094;11.900;2022-07-03T04:38:12;6.05;;;5.75;;
11620;SDS011;5866;49.094;11.900;2022-07-03T04:40:39;9.90;;;9.10;;
11620;SDS011;5866;49.094;11.900;2022-07-03T04:43:07;5.32;;;4.93;;
11620;SDS011;5866;49.094;11.900;2022-07-03T04:45:34;8.50;;;8.10;;
11620;SDS011;5866;49.094;11.900;2022-07-03T04:48:02;7.28;;;6.88;;
11620;SDS011;5866;49.094;11.900;2022-07-03T04:50:30;6.15;;;5.80;;
11620;SDS011;5866;49.094;11.900;2022-07-03T04:52:59;6.95;;;6.30;;
11620;SDS011;5866;49.094;11.900;2022-07-03T04:55:26;4.72;;;4.43;;
11620;SDS011;5866;49.094;11.900;2022-07-03T04:57:54;7.00;;;6.60;;
11620;SDS011;5866;49.094;11.900;2022-07-03T05:00:21;9.32;;;8.82;;
11620;SDS011;5866;49.094;11.900;2022-07-03T05:02:49;9.70;;;9.07;;
11620;SDS011;5866;49.094;11.900;2022-07-03T05:05:16;11.75;;;11.15;;
11620;SDS011;5866;49.094;11.900;2022-07-03T05:07:44;12.30;;;11.60;;
11620;SDS011;5866;49.094;11.900;2022-07-03T05:10:13;12.75;;;12.05;;
11620;SDS011;5866;49.094;11.900;2022-07-03T05:12:41;11.88;;;11.27;;
11620;SDS011;5866;49.094;11.900;2022-07-03T05:15:09;12.55;;;11.85;;
11620;SDS011;5866;49.094;11.900;2022-07-03T05:17:37;12.05;;;11.45;;
11620;SDS011;5866;49.094;11.900;2022-07-03T05:20:05;11.93;;;11.32;;
11620;SDS011;5866;49.094;11.900;2022-07-03T05:22:50;13.25;;;12.48;;
11620;SDS011;5866;49.094;11.900;2022-07-03T05:25:19;13.38;;;12.57;;
11620;SDS011;5866;49.094;11.900;2022-07-03T05:27:47;14.30;;;13.40;;
11620;SDS011;5866;49.094;11.900;2022-07-03T05:30:16;13.15;;;12.45;;
11620;SDS011;5866;49.094;11.900;2022-07-03T05:32:44;10.75;;;10.15;;
11620;SDS011;5866;49.094;11.900;2022-07-03T05:35:11;10.23;;;9.55;;
11620;SDS011;5866;49.094;11.900;2022-07-03T05:37:39;9.98;;;9.48;;
11620;SDS011;5866;49.094;11.900;2022-07-03T05:40:07;11.00;;;10.40;;
11620;SDS011;5866;49.094;11.900;2022-07-03T05:42:36;13.35;;;12.55;;
11620;SDS011;5866;49.094;11.900;2022-07-03T05:45:05;12.63;;;11.95;;
11620;SDS011;5866;49.094;11.900;2022-07-03T05:47:33;10.60;;;10.00;;
11620;SDS011;5866;49.094;11.900;2022-07-03T05:50:10;8.59;;;8.01;;
11620;SDS011;5866;49.094;11.900;2022-07-03T05:52:38;7.95;;;7.55;;
11620;SDS011;5866;49.094;11.900;2022-07-03T05:55:06;6.88;;;6.47;;
11620;SDS011;5866;49.094;11.900;2022-07-03T05:57:34;8.40;;;7.93;;
11620;SDS011;5866;49.094;11.900;2022-07-03T06:00:03;8.90;;;8.40;;
11620;SDS011;5866;49.094;11.900;2022-07-03T06:02:32;7.25;;;6.85;;
11620;SDS011;5866;49.094;11.900;2022-07-03T06:04:59;8.85;;;8.25;;
11620;SDS011;5866;49.094;11.900;2022-07-03T06:07:27;6.72;;;6.32;;
11620;SDS011;5866;49.094;11.900;2022-07-03T06:09:54;7.18;;;6.78;;
11620;SDS011;5866;49.094;11.900;2022-07-03T06:12:22;8.07;;;7.63;;
11620;SDS011;5866;49.094;11.900;2022-07-03T06:14:50;11.45;;;10.82;;
11620;SDS011;5866;49.094;11.900;2022-07-03T06:17:18;8.05;;;7.65;;
11620;SDS011;5866;49.094;11.900;2022-07-03T06:19:46;11.63;;;10.93;;
11620;SDS011;5866;49.094;11.900;2022-07-03T06:22:14;7.43;;;6.93;;
11620;SDS011;5866;49.094;11.900;2022-07-03T06:24:41;8.23;;;7.82;;
11620;SDS011;5866;49.094;11.900;2022-07-03T06:27:09;5.30;;;5.00;;
11620;SDS011;5866;49.094;11.900;2022-07-03T06:29:36;5.88;;;5.47;;
11620;SDS011;5866;49.094;11.900;2022-07-03T06:32:04;6.32;;;5.95;;
11620;SDS011;5866;49.094;11.900;2022-07-03T06:34:33;6.30;;;5.90;;
11620;SDS011;5866;49.094;11.900;2022-07-03T06:37:01;7.63;;;7.13;;
11620;SDS011;5866;49.094;11.900;2022-07-03T06:39:28;5.47;;;5.18;;
11620;SDS011;5866;49.094;11.900;2022-07-03T06:41:56;6.00;;;5.60;;
11620;SDS011;5866;49.094;11.900;2022-07-03T06:44:23;5.80;;;5.47;;
11620;SDS011;5866;49.094;11.900;2022-07-03T06:46:51;7.82;;;7.43;;
11620;SDS011;5866;49.094;11.900;2022-07-03T06:49:19;6.50;;;6.18;;
11620;SDS011;5866;49.094;11.900;2022-07-03T06:51:47;7.30;;;6.90;;
11620;SDS011;5866;49.094;11.900;2022-07-03T06:54:15;5.47;;;5.15;;
11620;SDS011;5866;49.094;11.900;2022-07-03T06:56:43;7.75;;;7.35;;
11620;SDS011;5866;49.094;11.900;2022-07-03T06:59:10;7.07;;;6.53;;
11620;SDS011;5866;49.094;11.900;2022-07-03T07:01:38;7.32;;;6.93;;
11620;SDS011;5866;49.094;11.900;2022-07-03T07:04:06;6.85;;;6.47;;
11620;SDS011;5866;49.094;11.900;2022-07-03T07:06:34;7.45;;;7.00;;
11620;SDS011;5866;49.094;11.900;2022-07-03T07:09:03;10.32;;;9.73;;
11620;SDS011;5866;49.094;11.900;2022-07-03T07:11:32;9.02;;;8.57;;
11620;SDS011;5866;49.094;11.900;2022-07-03T07:13:59;10.65;;;10.05;;
11620;SDS011;5866;49.094;11.900;2022-07-03T07:16:27;9.80;;;9.30;;
11620;SDS011;5866;49.094;11.900;2022-07-03T07:18:55;10.65;;;9.95;;
11620;SDS011;5866;49.094;11.900;2022-07-03T07:21:23;8.82;;;8.32;;
11620;SDS011;5866;49.094;11.900;2022-07-03T07:23:50;9.98;;;9.30;;
11620;SDS011;5866;49.094;11.900;2022-07-03T07:26:20;10.48;;;9.88;;
11620;SDS011;5866;49.094;11.900;2022-07-03T07:28:47;10.20;;;9.70;;
11620;SDS011;5866;49.094;11.900;2022-07-03T07:31:15;9.20;;;8.70;;
11620;SDS011;5866;49.094;11.900;2022-07-03T07:33:43;10.50;;;9.90;;
11620;SDS011;5866;49.094;11.900;2022-07-03T07:36:10;12.00;;;11.38;;
11620;SDS011;5866;49.094;11.900;2022-07-03T07:38:38;8.98;;;8.48;;
11620;SDS011;5866;49.094;11.900;2022-07-03T07:41:05;9.95;;;9.38;;
11620;SDS011;5866;49.094;11.900;2022-07-03T07:43:34;11.10;;;10.50;;
11620;SDS011;5866;49.094;11.900;2022-07-03T07:46:02;12.00;;;11.30;;
11620;SDS011;5866;49.094;11.900;2022-07-03T07:48:30;11.75;;;11.07;;
11620;SDS011;5866;49.094;11.900;2022-07-03T07:50:57;10.02;;;9.48;;
11620;SDS011;5866;49.094;11.900;2022-07-03T07:53:25;9.32;;;8.82;;
11620;SDS011;5866;49.094;11.900;2022-07-03T07:55:52;9.82;;;9.32;;
11620;SDS011;5866;49.094;11.900;2022-07-03T07:58:20;8.93;;;8.43;;
11620;SDS011;5866;49.094;11.900;2022-07-03T08:00:49;5.55;;;5.25;;
11620;SDS011;5866;49.094;11.900;2022-07-03T08:03:34;7.82;;;7.32;;
11620;SDS011;5866;49.094;11.900;2022-07-03T08:06:20;7.10;;;6.60;;
11620;SDS011;5866;49.094;11.900;2022-07-03T08:08:47;6.53;;;6.20;;
11620;SDS011;5866;49.094;11.900;2022-07-03T08:11:15;5.75;;;5.45;;
11620;SDS011;5866;49.094;11.900;2022-07-03T08:13:43;4.18;;;3.92;;
11620;SDS011;5866;49.094;11.900;2022-07-03T08:16:13;3.75;;;3.47;;
11620;SDS011;5866;49.094;11.900;2022-07-03T08:18:41;6.60;;;6.10;;
11620;SDS011;5866;49.094;11.900;2022-07-03T08:21:09;5.65;;;5.32;;
11620;SDS011;5866;49.094;11.900;2022-07-03T08:23:37;7.53;;;7.13;;
11620;SDS011;5866;49.094;11.900;2022-07-03T08:26:04;5.03;;;4.72;;
11620;SDS011;5866;49.094;11.900;2022-07-03T08:28:32;5.32;;;5.03;;
11620;SDS011;5866;49.094;11.900;2022-07-03T08:30:59;5.45;;;5.00;;
11620;SDS011;5866;49.094;11.900;2022-07-03T08:33:28;6.82;;;6.50;;
11620;SDS011;5866;49.094;11.900;2022-07-03T08:36:03;6.10;;;5.80;;
11620;SDS011;5866;49.094;11.900;2022-07-03T08:38:31;6.60;;;6.20;;
11620;SDS011;5866;49.094;11.900;2022-07-03T08:41:01;4.78;;;4.47;;
11620;SDS011;5866;49.094;11.900;2022-07-03T08:43:31;4.30;;;4.10;;
11620;SDS011;5866;49.094;11.900;2022-07-03T08:45:59;4.75;;;4.53;;
11620;SDS011;5866;49.094;11.900;2022-07-03T08:48:30;5.43;;;4.93;;
11620;SDS011;5866;49.094;11.900;2022-07-03T08:51:01;3.50;;;3.30;;
11620;SDS011;5866;49.094;11.900;2022-07-03T08:53:28;5.25;;;4.90;;
11620;SDS011;5866;49.094;11.900;2022-07-03T08:55:56;7.95;;;7.45;;
11620;SDS011;5866;49.094;11.900;2022-07-03T08:58:24;6.13;;;5.82;;
11620;SDS011;5866;49.094;11.900;2022-07-03T09:00:56;3.47;;;3.28;;
11620;SDS011;5866;49.094;11.900;2022-07-03T09:03:24;4.88;;;4.60;;
11620;SDS011;5866;49.094;11.900;2022-07-03T09:05:53;4.85;;;4.55;;
11620;SDS011;5866;49.094;11.900;2022-07-03T09:08:21;5.78;;;5.40;;
11620;SDS011;5866;49.094;11.900;2022-07-03T09:10:50;5.40;;;5.10;;
11620;SDS011;5866;49.094;11.900;2022-07-03T09:13:18;8.30;;;7.80;;
11620;SDS011;5866;49.094;11.900;2022-07-03T09:15:46;7.43;;;7.03;;
11620;SDS011;5866;49.094;11.900;2022-07-03T09:18:13;7.90;;;7.50;;
11620;SDS011;5866;49.094;11.900;2022-07-03T09:20:41;9.57;;;9.07;;
11620;SDS011;5866;49.094;11.900;2022-07-03T09:23:14;3.88;;;3.67;;
11620;SDS011;5866;49.094;11.900;2022-07-03T09:25:50;6.53;;;6.13;;
11620;SDS011;5866;49.094;11.900;2022-07-03T09:28:19;10.25;;;9.55;;
11620;SDS011;5866;49.094;11.900;2022-07-03T09:30:57;8.40;;;7.63;;
11620;SDS011;5866;49.094;11.900;2022-07-03T09:33:26;6.55;;;6.07;;
11620;SDS011;5866;49.094;11.900;2022-07-03T09:35:55;6.15;;;5.85;;
11620;SDS011;5866;49.094;11.900;2022-07-03T09:38:24;14.32;;;13.20;;
11620;SDS011;5866;49.094;11.900;2022-07-03T09:40:52;7.95;;;7.45;;
11620;SDS011;5866;49.094;11.900;2022-07-03T09:43:22;6.90;;;6.32;;
11620;SDS011;5866;49.094;11.900;2022-07-03T09:45:52;6.32;;;5.93;;
11620;SDS011;5866;49.094;11.900;2022-07-03T09:48:25;3.28;;;3.08;;
11620;SDS011;5866;49.094;11.900;2022-07-03T09:51:08;6.40;;;5.90;;
11620;SDS011;5866;49.094;11.900;2022-07-03T09:53:49;6.38;;;5.97;;
11620;SDS011;5866;49.094;11.900;2022-07-03T09:56:23;3.97;;;3.35;;
11620;SDS011;5866;49.094;11.900;2022-07-03T09:58:59;9.55;;;9.05;;
11620;SDS011;5866;49.094;11.900;2022-07-03T10:01:28;9.43;;;8.82;;
11620;SDS011;5866;49.094;11.900;2022-07-03T10:04:07;7.22;;;6.82;;
11620;SDS011;5866;49.094;11.900;2022-07-03T10:06:45;7.22;;;6.82;;
11620;SDS011;5866;49.094;11.900;2022-07-03T10:09:19;4.68;;;4.38;;
11620;SDS011;5866;49.094;11.900;2022-07-03T10:11:47;7.72;;;7.13;;
11620;SDS011;5866;49.094;11.900;2022-07-03T10:14:17;7.53;;;7.13;;
11620;SDS011;5866;49.094;11.900;2022-07-03T10:16:45;9.02;;;8.52;;
11620;SDS011;5866;49.094;11.900;2022-07-03T10:19:14;7.65;;;7.15;;
11620;SDS011;5866;49.094;11.900;2022-07-03T10:21:47;9.95;;;9.45;;
11620;SDS011;5866;49.094;11.900;2022-07-03T10:24:19;6.15;;;5.85;;
11620;SDS011;5866;49.094;11.900;2022-07-03T10:26:49;4.03;;;3.70;;
11620;SDS011;5866;49.094;11.900;2022-07-03T10:29:17;8.13;;;7.72;;
11620;SDS011;5866;49.094;11.900;2022-07-03T10:31:54;4.68;;;4.47;;
11620;SDS011;5866;49.094;11.900;2022-07-03T10:34:23;5.30;;;5.00;;
11620;SDS011;5866;49.094;11.900;2022-07-03T10:36:52;8.32;;;7.82;;
11620;SDS011;5866;49.094;11.900;2022-07-03T10:39:30;7.57;;;7.18;;
11620;SDS011;5866;49.094;11.900;2022-07-03T10:42:03;6.97;;;6.65;;
11620;SDS011;5866;49.094;11.900;2022-07-03T10:45:02;6.00;;;5.70;;
11620;SDS011;5866;49.094;11.900;2022-07-03T10:47:36;8.32;;;7.88;;
11620;SDS011;5866;49.094;11.900;2022-07-03T10:50:09;6.57;;;6.07;;
11620;SDS011;5866;49.094;11.900;2022-07-03T10:52:38;8.07;;;7.57;;
11620;SDS011;5866;49.094;11.900;2022-07-03T10:55:08;8.50;;;8.10;;
11620;SDS011;5866;49.094;11.900;2022-07-03T10:57:36;6.40;;;6.07;;
11620;SDS011;5866;49.094;11.900;2022-07-03T11:00:17;6.90;;;6.60;;
11620;SDS011;5866;49.094;11.900;2022-07-03T11:02:46;6.13;;;5.82;;
11620;SDS011;5866;49.094;11.900;2022-07-03T11:05:19;5.65;;;5.35;;
11620;SDS011;5866;49.094;11.900;2022-07-03T11:08:09;5.45;;;5.15;;
11620;SDS011;5866;49.094;11.900;2022-07-03T11:10:40;6.00;;;5.70;;
11620;SDS011;5866;49.094;11.900;2022-07-03T11:13:16;5.97;;;5.68;;
11620;SDS011;5866;49.094;11.900;2022-07-03T11:15:48;6.20;;;5.90;;
11620;SDS011;5866;49.094;11.900;2022-07-03T11:18:18;6.72;;;6.32;;
11620;SDS011;5866;49.094;11.900;2022-07-03T11:29:49;10.15;;;9.55;;
11620;SDS011;5866;49.094;11.900;2022-07-03T11:38:17;7.70;;;7.30;;
11620;SDS011;5866;49.094;11.900;2022-07-03T11:40:49;7.47;;;6.88;;
11620;SDS011;5866;49.094;11.900;2022-07-03T11:43:19;5.57;;;5.28;;
11620;SDS011;5866;49.094;11.900;2022-07-03T11:45:47;7.50;;;7.10;;
11620;SDS011;5866;49.094;11.900;2022-07-03T11:48:16;5.93;;;5.63;;
11620;SDS011;5866;49.094;11.900;2022-07-03T11:50:44;7.35;;;6.95;;
11620;SDS011;5866;49.094;11.900;2022-07-03T11:53:17;5.82;;;5.53;;
11620;SDS011;5866;49.094;11.900;2022-07-03T11:55:53;6.55;;;6.05;;
11620;SDS011;5866;49.094;11.900;2022-07-03T11:58:24;6.00;;;5.70;;
11620;SDS011;5866;49.094;11.900;2022-07-03T12:00:52;4.75;;;4.55;;
11620;SDS011;5866;49.094;11.900;2022-07-03T12:03:21;5.30;;;5.00;;
11620;SDS011;5866;49.094;11.900;2022-07-03T12:05:53;7.70;;;7.30;;
11620;SDS011;5866;49.094;11.900;2022-07-03T12:08:23;8.82;;;8.18;;
11620;SDS011;5866;49.094;11.900;2022-07-03T12:10:55;7.88;;;7.45;;
11620;SDS011;5866;49.094;11.900;2022-07-03T12:13:26;7.38;;;6.90;;
11620;SDS011;5866;49.094;11.900;2022-07-03T12:16:03;11.20;;;10.63;;
11620;SDS011;5866;49.094;11.900;2022-07-03T12:18:45;13.07;;;12.38;;
11620;SDS011;5866;49.094;11.900;2022-07-03T12:21:14;15.02;;;14.13;;
11620;SDS011;5866;49.094;11.900;2022-07-03T12:23:43;12.93;;;12.25;;
11620;SDS011;5866;49.094;11.900;2022-07-03T12:26:12;12.77;;;12.15;;
11620;SDS011;5866;49.094;11.900;2022-07-03T12:28:42;7.32;;;6.93;;
11620;SDS011;5866;49.094;11.900;2022-07-03T12:31:10;5.13;;;4.93;;
11620;SDS011;5866;49.094;11.900;2022-07-03T12:33:38;6.95;;;6.60;;
11620;SDS011;5866;49.094;11.900;2022-07-03T12:36:07;7.63;;;7.22;;
11620;SDS011;5866;49.094;11.900;2022-07-03T12:38:36;6.00;;;5.70;;
11620;SDS011;5866;49.094;11.900;2022-07-03T12:41:04;6.25;;;5.95;;
11620;SDS011;5866;49.094;11.900;2022-07-03T12:43:38;8.40;;;8.00;;
11620;SDS011;5866;49.094;11.900;2022-07-03T12:46:18;5.38;;;5.07;;
11620;SDS011;5866;49.094;11.900;2022-07-03T12:48:47;4.38;;;4.18;;
11620;SDS011;5866;49.094;11.900;2022-07-03T12:51:16;3.65;;;3.45;;
11620;SDS011;5866;49.094;11.900;2022-07-03T12:53:44;7.25;;;6.90;;
11620;SDS011;5866;49.094;11.900;2022-07-03T12:56:21;7.80;;;7.40;;
11620;SDS011;5866;49.094;11.900;2022-07-03T12:58:49;7.60;;;7.20;;
11620;SDS011;5866;49.094;11.900;2022-07-03T13:01:35;5.93;;;5.63;;
11620;SDS011;5866;49.094;11.900;2022-07-03T13:04:03;6.25;;;5.95;;
11620;SDS011;5866;49.094;11.900;2022-07-03T13:06:32;6.35;;;5.95;;
11620;SDS011;5866;49.094;11.900;2022-07-03T13:09:00;4.38;;;4.07;;
11620;SDS011;5866;49.094;11.900;2022-07-03T13:11:30;2.70;;;2.60;;
11620;SDS011;5866;49.094;11.900;2022-07-03T13:14:02;3.50;;;3.33;;
11620;SDS011;5866;49.094;11.900;2022-07-03T13:16:39;3.30;;;3.10;;
11620;SDS011;5866;49.094;11.900;2022-07-03T13:19:09;6.03;;;5.72;;
11620;SDS011;5866;49.094;11.900;2022-07-03T13:21:38;7.43;;;7.03;;
11620;SDS011;5866;49.094;11.900;2022-07-03T13:24:06;6.60;;;6.30;;
11620;SDS011;5866;49.094;11.900;2022-07-03T13:26:34;7.50;;;7.10;;
11620;SDS011;5866;49.094;11.900;2022-07-03T13:29:02;5.32;;;5.03;;
11620;SDS011;5866;49.094;11.900;2022-07-03T13:31:30;8.18;;;7.78;;
11620;SDS011;5866;49.094;11.900;2022-07-03T13:33:59;7.45;;;7.05;;
11620;SDS011;5866;49.094;11.900;2022-07-03T13:36:27;3.65;;;3.47;;
11620;SDS011;5866;49.094;11.900;2022-07-03T13:38:56;4.70;;;4.50;;
11620;SDS011;5866;49.094;11.900;2022-07-03T13:41:24;6.72;;;6.43;;
11620;SDS011;5866;49.094;11.900;2022-07-03T13:43:52;7.13;;;6.80;;
11620;SDS011;5866;49.094;11.900;2022-07-03T13:46:20;6.93;;;6.40;;
11620;SDS011;5866;49.094;11.900;2022-07-03T13:48:50;8.65;;;8.15;;
11620;SDS011;5866;49.094;11.900;2022-07-03T13:51:19;10.73;;;10.05;;
11620;SDS011;5866;49.094;11.900;2022-07-03T13:53:47;7.15;;;6.85;;
11620;SDS011;5866;49.094;11.900;2022-07-03T13:56:15;7.78;;;7.38;;
11620;SDS011;5866;49.094;11.900;2022-07-03T13:58:43;8.32;;;7.93;;
11620;SDS011;5866;49.094;11.900;2022-07-03T14:01:17;7.70;;;7.30;;
11620;SDS011;5866;49.094;11.900;2022-07-03T14:03:44;9.02;;;8.57;;
11620;SDS011;5866;49.094;11.900;2022-07-03T14:06:12;8.30;;;7.90;;
11620;SDS011;5866;49.094;11.900;2022-07-03T14:08:41;9.52;;;9.02;;
11620;SDS011;5866;49.094;11.900;2022-07-03T14:11:09;7.78;;;7.38;;
11620;SDS011;5866;49.094;11.900;2022-07-03T14:13:37;9.20;;;7.45;;
11620;SDS011;5866;49.094;11.900;2022-07-03T14:16:04;9.35;;;8.85;;
11620;SDS011;5866;49.094;11.900;2022-07-03T14:18:32;7.45;;;7.07;;
11620;SDS011;5866;49.094;11.900;2022-07-03T14:20:59;7.85;;;7.30;;
11620;SDS011;5866;49.094;11.900;2022-07-03T14:23:27;7.75;;;7.35;;
11620;SDS011;5866;49.094;11.900;2022-07-03T14:25:58;6.65;;;6.35;;
11620;SDS011;5866;49.094;11.900;2022-07-03T14:28:25;7.95;;;7.45;;
11620;SDS011;5866;49.094;11.900;2022-07-03T14:31:16;9.15;;;8.65;;
11620;SDS011;5866;49.094;11.900;2022-07-03T14:33:57;4.88;;;4.68;;
11620;SDS011;5866;49.094;11.900;2022-07-03T14:36:25;7.20;;;6.85;;
11620;SDS011;5866;49.094;11.900;2022-07-03T14:39:09;7.43;;;6.82;;
11620;SDS011;5866;49.094;11.900;2022-07-03T14:41:41;4.75;;;4.55;;
11620;SDS011;5866;49.094;11.900;2022-07-03T14:44:09;5.05;;;4.85;;
11620;SDS011;5866;49.094;11.900;2022-07-03T14:46:36;6.00;;;5.70;;
11620;SDS011;5866;49.094;11.900;2022-07-03T14:49:04;6.55;;;6.22;;
11620;SDS011;5866;49.094;11.900;2022-07-03T14:51:31;8.02;;;7.63;;
11620;SDS011;5866;49.094;11.900;2022-07-03T14:53:59;9.35;;;8.85;;
11620;SDS011;5866;49.094;11.900;2022-07-03T14:56:27;6.88;;;6.57;;
11620;SDS011;5866;49.094;11.900;2022-07-03T14:58:58;7.35;;;7.00;;
11620;SDS011;5866;49.094;11.900;2022-07-03T15:01:33;6.82;;;6.53;;
11620;SDS011;5866;49.094;11.900;2022-07-03T15:04:03;7.32;;;6.93;;
11620;SDS011;5866;49.094;11.900;2022-07-03T15:06:32;7.47;;;7.10;;
11620;SDS011;5866;49.094;11.900;2022-07-03T15:09:00;6.82;;;6.32;;
11620;SDS011;5866;49.094;11.900;2022-07-03T15:11:32;7.13;;;6.72;;
11620;SDS011;5866;49.094;11.900;2022-07-03T15:14:22;6.72;;;6.40;;